Time;durP1;ratioP1;P1;durP2;ratioP2;P2;SDS_P1;SDS_P2;PMS_P1;PMS_P2;Temp;Humidity;BMP_temperature;BMP_pressure;BME280_temperature;BME280_humidity;BME280_pressure;Samples;Min_cycle;Max_cycle;Signal;HPM_P1;HPM_P2
2023/06/20 00:01:39;;;;;;;14.03;12.63;;;;;19.10;96915.00;;;;5023100;28;20232;-83
2023/06/20 00:04:28;;;;;;;14.03;12.17;;;;;19.20;96913.00;;;;5021286;28;20217;-83
2023/06/20 00:07:18;;;;;;;12.50;11.20;;;;;19.50;96910.00;;;;5017480;28;20272;-83
2023/06/20 00:10:08;;;;;;;14.53;13.03;;;;;19.20;96907.00;;;;5019187;28;20209;-83
2023/06/20 00:12:59;;;;;;;14.80;12.90;;;;;18.90;96909.00;;;;5024281;28;20205;-82
2023/06/20 00:15:48;;;;;;;14.43;12.20;;;;;18.90;96904.00;;;;5022484;28;20224;-83
2023/06/20 00:18:38;;;;;;;15.87;12.60;;;;;18.90;96896.00;;;;5026869;28;20201;-82
2023/06/20 00:21:28;;;;;;;12.73;11.20;;;;;19.30;96904.00;;;;5025311;28;20221;-81
2023/06/20 00:24:17;;;;;;;13.33;12.03;;;;;19.40;96900.00;;;;5025926;28;20233;-83
2023/06/20 00:27:06;;;;;;;13.83;11.83;;;;;19.00;96896.00;;;;5026690;28;20774;-81
2023/06/20 00:29:55;;;;;;;12.70;11.40;;;;;18.90;96899.00;;;;5026036;28;20625;-82
2023/06/20 00:32:44;;;;;;;14.17;12.77;;;;;18.60;96898.00;;;;5024728;28;20201;-83
2023/06/20 00:35:35;;;;;;;13.27;11.93;;;;;18.80;96897.00;;;;5029621;28;20241;-82
2023/06/20 00:38:29;;;;;;;14.10;12.60;;;;;18.60;96882.00;;;;5023908;28;20197;-81
2023/06/20 00:41:20;;;;;;;13.83;12.40;;;;;18.40;96884.00;;;;5027724;28;20205;-83
2023/06/20 00:44:09;;;;;;;12.83;11.47;;;;;18.00;96879.00;;;;5027875;28;20225;-81
2023/06/20 00:46:59;;;;;;;14.50;12.70;;;;;18.60;96879.00;;;;5024535;28;20205;-84
2023/06/20 00:49:50;;;;;;;15.23;13.57;;;;;18.90;96871.00;;;;5024738;28;20204;-81
2023/06/20 00:52:41;;;;;;;15.63;11.30;;;;;19.00;96871.00;;;;5021425;28;20193;-84
2023/06/20 00:55:31;;;;;;;13.63;12.30;;;;;19.00;96865.00;;;;5027767;28;20224;-82
2023/06/20 00:58:20;;;;;;;13.60;12.13;;;;;19.00;96867.00;;;;5024450;28;20686;-82
2023/06/20 01:01:09;;;;;;;14.73;12.50;;;;;19.00;96861.00;;;;5029727;28;20201;-83
2023/06/20 01:03:58;;;;;;;13.50;12.10;;;;;18.90;96856.00;;;;5024410;28;20236;-81
2023/06/20 01:06:52;;;;;;;15.70;13.17;;;;;18.70;96850.00;;;;5031142;28;20232;-82
2023/06/20 01:09:49;;;;;;;16.17;13.30;;;;;17.90;96849.00;;;;5024988;28;20201;-84
2023/06/20 01:12:46;;;;;;;14.17;12.47;;;;;17.90;96854.00;;;;5021979;28;20208;-81
2023/06/20 01:15:46;;;;;;;14.37;12.90;;;;;17.60;96852.00;;;;5032100;28;20707;-81
2023/06/20 01:18:44;;;;;;;15.00;13.57;;;;;18.20;96847.00;;;;5026151;28;20655;-81
2023/06/20 01:21:37;;;;;;;14.80;12.47;;;;;18.50;96856.00;;;;5028051;28;20213;-81
2023/06/20 01:24:31;;;;;;;14.23;11.63;;;;;18.30;96854.00;;;;5030751;28;20587;-82
2023/06/20 01:27:25;;;;;;;15.70;14.00;;;;;17.80;96867.00;;;;5029659;28;20672;-83
2023/06/20 01:30:18;;;;;;;14.63;12.87;;;;;17.80;96863.00;;;;5026089;28;20210;-82
2023/06/20 01:33:08;;;;;;;14.90;13.10;;;;;18.10;96873.00;;;;5028668;28;20683;-81
2023/06/20 01:35:59;;;;;;;13.70;11.93;;;;;18.50;96871.00;;;;5025047;28;20288;-82
2023/06/20 01:38:50;;;;;;;15.10;13.50;;;;;18.40;96869.00;;;;5030086;28;20681;-82
2023/06/20 01:41:42;;;;;;;13.73;12.23;;;;;18.50;96869.00;;;;5031318;28;20193;-83
2023/06/20 01:44:34;;;;;;;15.17;12.50;;;;;18.40;96862.00;;;;5025226;28;20218;-83
2023/06/20 01:47:24;;;;;;;17.87;13.83;;;;;18.60;96854.00;;;;5030804;28;20567;-81
2023/06/20 01:50:14;;;;;;;14.10;11.50;;;;;18.70;96854.00;;;;5025096;28;20239;-82
2023/06/20 01:53:04;;;;;;;14.57;12.80;;;;;18.80;96853.00;;;;5029072;28;20208;-83
2023/06/20 01:55:54;;;;;;;12.57;11.27;;;;;18.30;96856.00;;;;5027710;28;20592;-84
2023/06/20 01:58:44;;;;;;;14.30;11.80;;;;;17.60;96860.00;;;;5026405;28;20217;-82
2023/06/20 02:01:34;;;;;;;15.77;13.20;;;;;17.60;96861.00;;;;5030413;28;20219;-81
2023/06/20 02:04:24;;;;;;;14.50;13.00;;;;;17.80;96869.00;;;;5030041;28;20228;-83
2023/06/20 02:07:14;;;;;;;13.93;12.13;;;;;17.50;96862.00;;;;5026717;28;20221;-83
2023/06/20 02:10:05;;;;;;;14.63;13.13;;;;;17.20;96868.00;;;;5032033;28;20209;-84
2023/06/20 02:12:56;;;;;;;14.87;12.50;;;;;17.10;96863.00;;;;5026874;28;20202;-83
2023/06/20 02:15:47;;;;;;;15.57;12.67;;;;;17.30;96860.00;;;;5024997;28;20250;-83
2023/06/20 02:18:36;;;;;;;14.80;13.30;;;;;17.50;96863.00;;;;5031670;28;20201;-83
2023/06/20 02:21:30;;;;;;;14.77;13.37;;;;;17.60;96873.00;;;;5024906;28;20206;-83
2023/06/20 02:24:21;;;;;;;14.73;13.07;;;;;17.70;96877.00;;;;5027008;28;20239;-84
2023/06/20 02:27:10;;;;;;;15.73;12.87;;;;;17.20;96882.00;;;;5028435;28;20208;-81
2023/06/20 02:30:01;;;;;;;15.13;13.30;;;;;17.40;96870.00;;;;5027841;28;20284;-82
2023/06/20 02:32:53;;;;;;;14.83;13.23;;;;;18.00;96874.00;;;;5024310;28;20202;-82
2023/06/20 02:35:44;;;;;;;14.40;12.90;;;;;18.20;96870.00;;;;5036104;28;20225;-84
2023/06/20 02:38:33;;;;;;;17.90;12.93;;;;;18.10;96863.00;;;;5024689;28;20680;-82
2023/06/20 02:41:22;;;;;;;16.47;13.10;;;;;17.70;96847.00;;;;5025539;28;20209;-82
2023/06/20 02:44:11;;;;;;;17.23;14.03;;;;;17.60;96861.00;;;;5029583;28;20744;-82
2023/06/20 02:47:08;;;;;;;15.40;13.60;;;;;17.30;96856.00;;;;5026020;28;20573;-81
2023/06/20 02:50:05;;;;;;;18.03;13.40;;;;;17.00;96865.00;;;;5021191;28;20218;-81
2023/06/20 02:53:02;;;;;;;14.80;13.30;;;;;17.30;96866.00;;;;5019219;28;20210;-81
2023/06/20 02:55:55;;;;;;;14.30;12.63;;;;;17.10;96864.00;;;;5025648;28;20689;-82
2023/06/20 02:58:47;;;;;;;15.87;14.13;;;;;17.60;96860.00;;;;5029160;28;20205;-81
2023/06/20 03:01:37;;;;;;;15.40;12.87;;;;;17.50;96866.00;;;;5028954;28;20282;-82
2023/06/20 03:04:32;;;;;;;16.00;13.23;;;;;16.80;96860.00;;;;5020459;28;20229;-81
2023/06/20 03:07:22;;;;;;;14.80;12.63;;;;;16.90;96859.00;;;;5030550;28;20732;-83
2023/06/20 03:10:12;;;;;;;16.30;12.40;;;;;17.30;96860.00;;;;5029803;28;20201;-84
2023/06/20 03:13:02;;;;;;;17.17;14.93;;;;;17.70;96871.00;;;;5031117;28;20197;-84
2023/06/20 03:15:51;;;;;;;16.13;13.03;;;;;17.70;96866.00;;;;5027206;28;20608;-82
2023/06/20 03:18:41;;;;;;;15.57;13.97;;;;;18.00;96871.00;;;;5023622;28;20197;-81
2023/06/20 03:21:30;;;;;;;17.60;15.83;;;;;17.90;96871.00;;;;5024757;28;20198;-83
2023/06/20 03:24:20;;;;;;;16.00;13.37;;;;;17.70;96876.00;;;;5027005;28;20245;-83
2023/06/20 03:27:09;;;;;;;13.43;11.97;;;;;17.50;96871.00;;;;5027347;28;20205;-84
2023/06/20 03:30:01;;;;;;;15.33;13.73;;;;;17.50;96876.00;;;;5026860;28;20202;-81
2023/06/20 03:32:50;;;;;;;14.83;13.23;;;;;17.60;96876.00;;;;5026709;28;20205;-81
2023/06/20 03:35:40;;;;;;;15.60;13.23;;;;;17.50;96872.00;;;;5035319;28;20228;-84
2023/06/20 03:38:29;;;;;;;15.80;13.30;;;;;17.40;96866.00;;;;5024229;28;20197;-83
2023/06/20 03:41:19;;;;;;;13.83;12.40;;;;;17.30;96859.00;;;;5028795;28;20237;-83
2023/06/20 03:44:08;;;;;;;15.50;13.40;;;;;16.80;96866.00;;;;5030003;28;20239;-82
2023/06/20 03:46:57;;;;;;;15.00;13.47;;;;;16.90;96863.00;;;;5025621;28;20274;-83
2023/06/20 03:49:46;;;;;;;17.33;14.60;;;;;17.10;96867.00;;;;5025670;28;20209;-82
2023/06/20 03:52:35;;;;;;;17.23;13.80;;;;;17.40;96869.00;;;;5025654;28;20574;-81
2023/06/20 03:55:25;;;;;;;16.27;13.57;;;;;17.30;96877.00;;;;5027735;28;20267;-81
2023/06/20 03:58:15;;;;;;;18.37;14.27;;;;;17.30;96873.00;;;;5024683;28;20201;-82
2023/06/20 04:01:06;;;;;;;16.47;13.50;;;;;17.10;96870.00;;;;5025707;28;20211;-83
2023/06/20 04:03:56;;;;;;;15.20;13.40;;;;;17.20;96866.00;;;;5022416;28;20252;-81
2023/06/20 04:06:49;;;;;;;15.27;13.70;;;;;17.10;96868.00;;;;5027512;28;20201;-82
2023/06/20 04:09:38;;;;;;;18.07;14.03;;;;;17.00;96864.00;;;;5029168;28;20205;-83
2023/06/20 04:12:27;;;;;;;17.30;14.97;;;;;17.30;96872.00;;;;5026453;28;20205;-81
2023/06/20 04:15:18;;;;;;;16.87;13.80;;;;;17.70;96875.00;;;;5029293;28;20581;-83
2023/06/20 04:18:07;;;;;;;16.53;14.13;;;;;17.60;96885.00;;;;5028492;28;20661;-82
2023/06/20 04:20:56;;;;;;;20.47;13.67;;;;;17.90;96877.00;;;;5018498;28;20476;-82
2023/06/20 04:23:46;;;;;;;16.47;14.17;;;;;18.10;96883.00;;;;5016473;28;20222;-82
2023/06/20 04:26:36;;;;;;;16.43;14.10;;;;;17.90;96875.00;;;;5024780;28;20443;-83
2023/06/20 04:29:29;;;;;;;17.07;13.23;;;;;17.90;96878.00;;;;5029537;28;20554;-82
2023/06/20 04:32:19;;;;;;;18.00;13.93;;;;;18.50;96868.00;;;;5026976;28;20209;-83
2023/06/20 04:35:10;;;;;;;17.17;14.07;;;;;18.70;96873.00;;;;5026461;28;20303;-82
2023/06/20 04:38:01;;;;;;;19.63;14.07;;;;;18.70;96871.00;;;;5025311;28;20212;-82
2023/06/20 04:40:50;;;;;;;17.33;14.07;;;;;18.60;96879.00;;;;5022604;28;20723;-82
2023/06/20 04:43:44;;;;;;;19.63;14.40;;;;;17.70;96879.00;;;;5026003;28;20440;-81
2023/06/20 04:46:33;;;;;;;16.20;14.50;;;;;18.00;96868.00;;;;5032358;28;20205;-82
2023/06/20 04:49:24;;;;;;;15.13;13.57;;;;;18.20;96868.00;;;;5029092;28;20205;-81
2023/06/20 04:52:13;;;;;;;14.10;12.70;;;;;18.40;96877.00;;;;5023228;28;20223;-85
2023/06/20 04:55:02;;;;;;;14.60;13.07;;;;;18.40;96878.00;;;;5020087;28;20720;-83
2023/06/20 04:57:54;;;;;;;15.70;13.23;;;;;18.60;96874.00;;;;5020349;28;20212;-81
2023/06/20 05:00:43;;;;;;;16.10;13.97;;;;;18.60;96880.00;;;;5027706;28;20209;-83
2023/06/20 05:03:32;;;;;;;15.90;13.57;;;;;19.10;96873.00;;;;5035541;28;20217;-83
2023/06/20 05:06:23;;;;;;;16.20;13.07;;;;;19.10;96882.00;;;;5035495;28;20614;-89
2023/06/20 05:09:12;;;;;;;16.87;13.43;;;;;19.10;96880.00;;;;5026810;28;20322;-82
2023/06/20 05:12:01;;;;;;;16.10;13.43;;;;;19.30;96882.00;;;;5025082;28;20216;-83
2023/06/20 05:14:53;;;;;;;14.43;12.90;;;;;19.70;96876.00;;;;5030599;28;20232;-83
2023/06/20 05:17:42;;;;;;;21.00;15.90;;;;;19.50;96866.00;;;;5023858;28;20198;-81
2023/06/20 05:20:31;;;;;;;17.10;14.83;;;;;20.10;96871.00;;;;5020305;28;20201;-81
2023/06/20 05:23:21;;;;;;;18.07;16.07;;;;;20.30;96867.00;;;;5023319;28;20584;-81
2023/06/20 05:26:11;;;;;;;16.93;14.73;;;;;20.60;96874.00;;;;5020051;28;20205;-82
2023/06/20 05:29:00;;;;;;;21.80;16.80;;;;;21.20;96868.00;;;;5032255;28;20259;-82
2023/06/20 05:31:49;;;;;;;18.63;15.30;;;;;21.30;96878.00;;;;5037853;28;20218;-82
2023/06/20 05:34:39;;;;;;;18.77;14.77;;;;;21.50;96873.00;;;;5028470;28;20249;-82
2023/06/20 05:37:28;;;;;;;17.97;16.00;;;;;21.30;96873.00;;;;5036506;28;20196;-82
2023/06/20 05:40:19;;;;;;;22.40;15.57;;;;;21.60;96864.00;;;;5042774;28;20197;-81
2023/06/20 05:43:08;;;;;;;18.17;15.53;;;;;22.10;96865.00;;;;5038424;28;20209;-82
2023/06/20 05:45:59;;;;;;;19.37;15.73;;;;;21.90;96863.00;;;;5036735;28;20880;-81
2023/06/20 05:48:48;;;;;;;17.97;15.97;;;;;22.30;96864.00;;;;5037742;28;20211;-82
2023/06/20 05:51:37;;;;;;;17.80;14.33;;;;;22.20;96871.00;;;;5037049;28;20201;-82
2023/06/20 05:54:26;;;;;;;16.27;14.17;;;;;22.70;96869.00;;;;5029131;28;20595;-81
2023/06/20 05:57:17;;;;;;;20.70;15.40;;;;;22.90;96877.00;;;;5026258;28;20210;-82
2023/06/20 06:00:12;;;;;;;17.67;14.13;;;;;22.50;96881.00;;;;5025225;28;20213;-83
2023/06/20 06:03:01;;;;;;;17.83;14.30;;;;;22.60;96883.00;;;;5033189;28;20217;-84
2023/06/20 06:05:50;;;;;;;22.17;14.83;;;;;23.10;96887.00;;;;5017296;28;20238;-84
2023/06/20 06:08:40;;;;;;;16.13;14.27;;;;;23.10;96889.00;;;;5031658;28;20710;-81
2023/06/20 06:11:29;;;;;;;22.80;14.50;;;;;23.50;96900.00;;;;5024988;28;20202;-82
2023/06/20 06:14:20;;;;;;;16.53;14.30;;;;;23.80;96897.00;;;;5030937;28;20227;-83
2023/06/20 06:17:10;;;;;;;20.07;13.27;;;;;24.00;96907.00;;;;5029704;28;20256;-82
2023/06/20 06:19:59;;;;;;;15.50;12.93;;;;;24.10;96900.00;;;;5029382;28;20216;-82
2023/06/20 06:22:48;;;;;;;16.33;14.63;;;;;24.50;96903.00;;;;5026152;28;20607;-82
2023/06/20 06:25:37;;;;;;;19.53;15.63;;;;;24.60;96908.00;;;;5029914;28;20228;-82
2023/06/20 06:28:28;;;;;;;17.70;13.13;;;;;24.30;96905.00;;;;5027317;28;20892;-83
2023/06/20 06:31:26;;;;;;;16.83;13.37;;;;;24.80;96897.00;;;;5032517;28;20241;-85
2023/06/20 06:34:17;;;;;;;18.53;14.60;;;;;24.90;96886.00;;;;5036967;28;20667;-84
2023/06/20 06:37:06;;;;;;;15.87;13.50;;;;;25.00;96874.00;;;;5027009;28;20209;-84
2023/06/20 06:39:56;;;;;;;16.90;13.60;;;;;25.10;96881.00;;;;5026739;28;20215;-84
2023/06/20 06:42:46;;;;;;;16.07;14.13;;;;;24.80;96897.00;;;;5024976;28;20248;-84
2023/06/20 06:45:36;;;;;;;16.70;13.60;;;;;25.30;96896.00;;;;5025798;28;20264;-84
2023/06/20 06:48:27;;;;;;;18.97;14.00;;;;;25.20;96894.00;;;;5029572;28;20209;-82
2023/06/20 06:51:16;;;;;;;18.50;14.17;;;;;25.60;96902.00;;;;5029397;28;20206;-83
2023/06/20 06:54:05;;;;;;;13.50;12.13;;;;;25.90;96889.00;;;;5026221;28;20225;-83
2023/06/20 06:56:54;;;;;;;17.30;13.57;;;;;26.00;96883.00;;;;5026790;28;20209;-84
2023/06/20 06:59:43;;;;;;;14.23;12.73;;;;;26.20;96884.00;;;;5023285;28;20201;-84
2023/06/20 07:02:32;;;;;;;15.67;13.37;;;;;26.40;96882.00;;;;5024036;28;20213;-83
2023/06/20 07:05:23;;;;;;;15.83;12.30;;;;;26.50;96875.00;;;;5022390;28;20669;-82
2023/06/20 07:08:12;;;;;;;17.27;14.67;;;;;26.30;96866.00;;;;5029312;28;20213;-83
2023/06/20 07:11:01;;;;;;;16.47;13.80;;;;;26.90;96866.00;;;;5022075;28;20206;-84
2023/06/20 07:13:50;;;;;;;14.87;12.77;;;;;27.30;96856.00;;;;5025457;28;20209;-82
2023/06/20 07:16:40;;;;;;;15.80;13.17;;;;;27.40;96864.00;;;;5028596;28;20255;-82
2023/06/20 07:19:34;;;;;;;16.47;12.30;;;;;27.70;96869.00;;;;5026216;28;20201;-82
2023/06/20 07:22:24;;;;;;;16.90;12.10;;;;;28.00;96850.00;;;;5028006;28;20193;-83
2023/06/20 07:25:15;;;;;;;15.13;13.43;;;;;28.20;96850.00;;;;5027268;28;21023;-82
2023/06/20 07:28:04;;;;;;;14.30;12.87;;;;;28.50;96846.00;;;;5023859;28;20219;-82
2023/06/20 07:30:53;;;;;;;15.93;12.03;;;;;28.70;96840.00;;;;5026948;28;20217;-84
2023/06/20 07:33:42;;;;;;;18.43;12.97;;;;;28.70;96846.00;;;;5028365;28;20196;-83
2023/06/20 07:36:32;;;;;;;15.10;12.47;;;;;29.00;96854.00;;;;5023774;28;20200;-83
2023/06/20 07:39:22;;;;;;;16.40;11.57;;;;;29.00;96851.00;;;;5025145;28;20205;-83
2023/06/20 07:42:11;;;;;;;15.37;11.50;;;;;28.80;96858.00;;;;5022738;28;20253;-82
2023/06/20 07:45:00;;;;;;;14.67;12.57;;;;;28.60;96859.00;;;;5023218;28;20279;-82
2023/06/20 07:47:49;;;;;;;13.77;10.83;;;;;29.40;96857.00;;;;5024087;28;20213;-83
2023/06/20 07:50:38;;;;;;;15.17;10.67;;;;;30.00;96851.00;;;;5028291;28;20244;-83
2023/06/20 07:53:28;;;;;;;13.53;11.80;;;;;30.00;96846.00;;;;5021576;28;20230;-83
2023/06/20 07:56:19;;;;;;;15.37;11.40;;;;;29.80;96846.00;;;;5027336;28;20210;-83
2023/06/20 07:59:08;;;;;;;14.97;10.23;;;;;30.10;96841.00;;;;5026456;28;20237;-82
2023/06/20 08:01:57;;;;;;;11.90;10.40;;;;;30.00;96840.00;;;;5025168;28;20204;-83
2023/06/20 08:04:46;;;;;;;12.50;11.20;;;;;29.70;96835.00;;;;5023439;28;20232;-82
2023/06/20 08:07:36;;;;;;;12.13;10.40;;;;;30.50;96841.00;;;;5025347;28;20254;-82
2023/06/20 08:10:25;;;;;;;13.93;11.73;;;;;31.10;96835.00;;;;5023203;28;20208;-82
2023/06/20 08:13:16;;;;;;;11.57;10.47;;;;;31.40;96825.00;;;;5025346;28;20232;-83
2023/06/20 08:16:05;;;;;;;21.60;10.07;;;;;31.30;96842.00;;;;5024336;28;20206;-82
2023/06/20 08:18:55;;;;;;;11.33;8.83;;;;;30.90;96846.00;;;;5026143;28;20210;-82
2023/06/20 08:21:44;;;;;;;9.90;8.90;;;;;31.00;96838.00;;;;5023210;28;20216;-82
2023/06/20 08:24:33;;;;;;;10.63;9.47;;;;;31.00;96843.00;;;;5021916;28;20225;-81
2023/06/20 08:27:22;;;;;;;11.17;9.70;;;;;31.00;96845.00;;;;5027085;28;20239;-82
2023/06/20 08:30:13;;;;;;;10.50;9.40;;;;;30.60;96852.00;;;;5028170;28;20220;-82
2023/06/20 08:33:03;;;;;;;10.60;9.60;;;;;30.70;96845.00;;;;5025147;28;20633;-82
2023/06/20 08:35:52;;;;;;;13.40;10.40;;;;;30.70;96840.00;;;;5022597;28;20222;-81
2023/06/20 08:38:41;;;;;;;9.87;8.90;;;;;30.60;96839.00;;;;5022527;28;20241;-82
2023/06/20 08:41:30;;;;;;;10.10;9.10;;;;;30.40;96856.00;;;;5027310;28;20201;-81
2023/06/20 08:44:19;;;;;;;11.40;10.20;;;;;30.60;96848.00;;;;5024363;28;20238;-81
2023/06/20 08:47:10;;;;;;;11.93;9.67;;;;;30.80;96855.00;;;;5025979;28;20236;-82
2023/06/20 08:49:59;;;;;;;11.60;9.80;;;;;31.30;96845.00;;;;5018976;28;20212;-83
2023/06/20 08:52:50;;;;;;;10.37;9.37;;;;;31.80;96845.00;;;;5020008;28;20221;-82
2023/06/20 08:55:41;;;;;;;12.43;10.47;;;28.50;99.90;32.00;96839.00;;;;5027459;28;20232;-83
2023/06/20 08:58:33;;;;;;;11.90;10.60;;;28.50;99.70;32.50;96842.00;;;;5020393;28;20206;-82
2023/06/20 09:01:22;;;;;;;11.13;10.10;;;28.80;99.80;32.90;96848.00;;;;5024491;28;20262;-81
2023/06/20 09:04:12;;;;;;;10.80;9.70;;;29.10;99.10;32.40;96851.00;;;;5025860;28;20217;-84
2023/06/20 09:07:01;;;;;;;14.77;11.38;;;29.20;98.10;32.60;96857.00;;;;5024640;28;20233;-83
2023/06/20 09:09:50;;;;;;;12.57;11.32;;;29.40;97.50;32.50;96848.00;;;;5026706;28;20271;-82
2023/06/20 09:12:47;;;;;;;16.40;10.80;;;29.50;97.20;32.60;96843.00;;;;5026595;28;20235;-84
2023/06/20 09:15:37;;;;;;;10.23;9.02;;;29.50;96.20;33.50;96845.00;;;;5023008;28;20224;-82
2023/06/20 09:18:27;;;;;;;11.05;9.88;;;29.80;96.40;33.30;96854.00;;;;5027922;28;20200;-82
2023/06/20 09:21:17;;;;;;;16.38;11.00;;;29.90;96.00;33.30;96850.00;;;;5022560;28;20201;-82
2023/06/20 09:24:08;;;;;;;10.70;9.70;;;30.10;94.50;33.80;96848.00;;;;5022928;28;20227;-82
2023/06/20 09:27:03;;;;;;;13.02;10.93;;;30.30;94.40;33.50;96855.00;;;;5026829;28;20719;-84
2023/06/20 09:29:53;;;;;;;10.45;9.13;;;30.30;93.20;33.80;96851.00;;;;5026951;28;20214;-82
2023/06/20 09:32:43;;;;;;;11.18;9.95;;;30.40;93.40;33.50;96854.00;;;;5027764;28;20196;-83
2023/06/20 09:35:32;;;;;;;10.55;9.45;;;30.50;92.40;34.00;96849.00;;;;5026947;28;20776;-83
2023/06/20 09:38:22;;;;;;;11.98;10.30;;;30.60;92.30;33.10;96842.00;;;;5023129;28;20640;-83
2023/06/20 09:41:16;;;;;;;10.38;8.90;;;30.50;91.20;33.90;96843.00;;;;5029660;28;20208;-84
2023/06/20 09:44:05;;;;;;;10.02;9.13;;;30.50;91.90;33.40;96840.00;;;;5031890;28;20306;-82
2023/06/20 09:46:55;;;;;;;9.57;8.70;;;30.50;91.50;33.10;96837.00;;;;5024492;28;20257;-83
2023/06/20 09:49:44;;;;;;;10.38;9.25;;;30.40;91.90;33.90;96843.00;;;;5031570;28;20204;-84
2023/06/20 09:52:38;;;;;;;10.80;9.50;;;30.50;91.20;34.60;96837.00;;;;5026655;28;20207;-83
2023/06/20 09:55:30;;;;;;;12.38;9.02;;;30.70;91.30;34.70;96846.00;;;;5029296;28;20219;-83
2023/06/20 09:58:22;;;;;;;10.25;9.25;;;30.90;90.20;34.80;96831.00;;;;5023784;28;20219;-82
2023/06/20 10:01:14;;;;;;;24.55;8.93;;;31.10;90.00;33.90;96817.00;;;;5028992;28;20210;-83
2023/06/20 10:04:03;;;;;;;9.63;8.73;;;31.20;90.10;35.20;96819.00;;;;5027500;28;20235;-83
2023/06/20 10:06:52;;;;;;;10.23;8.90;;;31.40;89.60;34.80;96815.00;;;;5024794;28;20228;-83
2023/06/20 10:09:42;;;;;;;11.77;8.93;;;31.70;88.70;34.80;96830.00;;;;5027528;28;20211;-82
2023/06/20 10:12:33;;;;;;;9.50;8.52;;;31.80;86.20;34.70;96827.00;;;;5026161;28;20667;-83
2023/06/20 10:15:22;;;;;;;10.23;8.50;;;31.70;84.90;33.50;96816.00;;;;5036331;28;20231;-82
2023/06/20 10:18:21;;;;;;;15.85;7.72;;;;;31.40;96815.00;;;;5046282;28;20215;-85
2023/06/20 10:21:15;;;;;;;9.95;8.93;;;30.30;83.60;31.60;96816.00;;;;5044064;28;20216;-85
2023/06/20 10:24:04;;;;;;;9.77;8.88;;;30.00;85.30;31.70;96818.00;;;;5036279;28;20247;-83
2023/06/20 10:26:54;;;;;;;9.00;8.10;;;29.90;85.00;32.30;96799.00;;;;5032317;28;20230;-81
2023/06/20 10:29:44;;;;;;;11.25;8.65;;;29.90;86.20;34.20;96826.00;;;;5043666;28;20203;-84
2023/06/20 10:32:33;;;;;;;9.30;8.45;;;30.30;88.10;35.10;96828.00;;;;5040758;28;20219;-84
2023/06/20 10:35:24;;;;;;;11.73;9.80;;;30.80;88.60;35.40;96820.00;;;;5047809;28;20223;-85
2023/06/20 10:38:13;;;;;;;10.52;9.35;;;31.30;88.80;35.80;96816.00;;;;5034436;28;20220;-86
2023/06/20 10:41:13;;;;;;;18.85;10.30;;;31.80;87.50;35.90;96813.00;;;;5035115;28;20204;-85
2023/06/20 10:44:03;;;;;;;9.38;8.57;;;32.20;86.10;36.30;96812.00;;;;5035565;28;20227;-84
2023/06/20 10:46:54;;;;;;;9.95;8.90;;;32.50;85.70;36.50;96819.00;;;;5037560;28;20231;-86
2023/06/20 10:49:42;;;;;;;9.15;8.35;;;32.80;85.10;35.80;96811.00;;;;5035000;28;20197;-85
2023/06/20 10:52:31;;;;;;;10.40;9.40;;;32.80;83.40;36.00;96812.00;;;;5036310;28;20201;-85
2023/06/20 10:55:26;;;;;;;11.30;10.20;;;32.90;81.60;35.80;96799.00;;;;5035837;28;20257;-85
2023/06/20 10:58:17;;;;;;;11.50;10.25;;;33.00;79.30;36.30;96802.00;;;;5031807;28;20572;-85
2023/06/20 11:01:18;;;;;;;11.00;9.90;;;33.00;80.20;36.50;96794.00;;;;5031054;28;20204;-84
2023/06/20 11:04:09;;;;;;;11.10;9.98;;;33.20;80.50;36.90;96795.00;;;;5031913;28;20236;-85
2023/06/20 11:06:58;;;;;;;10.80;9.73;;;33.30;80.60;36.90;96797.00;;;;5034209;28;20608;-86
2023/06/20 11:09:47;;;;;;;10.45;9.38;;;33.50;79.10;36.90;96791.00;;;;5030929;28;20201;-83
2023/06/20 11:12:41;;;;;;;10.40;8.90;;;33.50;78.90;37.50;96790.00;;;;5033774;28;20193;-84
2023/06/20 11:15:35;;;;;;;9.90;9.00;;;33.80;79.60;37.50;96796.00;;;;5035070;28;20220;-85
2023/06/20 11:18:24;;;;;;;11.70;9.20;;;34.00;76.20;37.60;96796.00;;;;5032160;28;20291;-84
2023/06/20 11:21:16;;;;;;;10.25;8.77;;;34.10;77.20;37.80;96801.00;;;;5034397;28;20278;-85
2023/06/20 11:24:06;;;;;;;10.55;9.65;;;34.30;76.60;37.80;96802.00;;;;5036995;28;20231;-85
2023/06/20 11:26:56;;;;;;;11.88;8.07;;;34.30;73.80;38.10;96798.00;;;;5031937;28;20704;-85
2023/06/20 11:29:46;;;;;;;8.50;7.65;;;34.40;74.90;38.20;96788.00;;;;5034430;28;20215;-85
2023/06/20 11:32:34;;;;;;;10.10;9.02;;;34.50;73.60;38.60;96777.00;;;;5037152;28;20195;-85
2023/06/20 11:35:23;;;;;;;9.18;8.27;;;34.70;72.20;38.80;96777.00;;;;5035111;28;20217;-85
2023/06/20 11:38:15;;;;;;;9.32;8.32;;;35.00;70.10;38.70;96772.00;;;;5025371;28;20210;-84
2023/06/20 11:41:06;;;;;;;10.88;9.95;;;35.10;68.30;36.60;96770.00;;;;5030998;28;20201;-85
2023/06/20 11:43:55;;;;;;;11.38;10.35;;;34.80;70.40;37.70;96766.00;;;;5032360;28;20408;-85
2023/06/20 11:46:45;;;;;;;10.35;9.45;;;34.70;70.00;37.60;96757.00;;;;5024215;28;20557;-84
2023/06/20 11:49:34;;;;;;;11.45;10.45;;;34.60;70.30;38.70;96749.00;;;;5027104;28;20201;-85
2023/06/20 11:52:31;;;;;;;10.55;9.43;;;34.80;71.00;38.30;96760.00;;;;5032650;28;20197;-86
2023/06/20 11:55:46;;;;;;;13.18;8.77;;;34.90;69.20;36.70;96760.00;;;;5027577;28;20283;-84
2023/06/20 11:58:40;;;;;;;9.25;8.35;;;34.90;68.50;35.50;96753.00;;;;5030205;28;20206;-83
2023/06/20 12:01:30;;;;;;;9.13;8.27;;;34.30;67.40;38.30;96761.00;;;;5030256;28;20201;-84
2023/06/20 12:04:21;;;;;;;9.77;8.50;;;34.40;68.10;38.10;96812.00;;;;5028639;28;20266;-85
2023/06/20 12:07:10;;;;;;;8.82;8.05;;;34.60;66.80;38.10;96757.00;;;;5028646;28;20221;-85
2023/06/20 12:10:07;;;;;;;9.18;8.38;;;34.60;68.00;39.40;96751.00;;;;5034567;28;20213;-85
2023/06/20 12:13:03;;;;;;;9.68;8.45;;;34.90;69.10;39.50;96752.00;;;;5028993;28;20602;-85
2023/06/20 12:15:52;;;;;;;9.18;7.80;;;35.40;67.40;39.70;96753.00;;;;5029831;28;20516;-86
2023/06/20 12:18:41;;;;;;;10.00;9.10;;;35.60;66.70;39.90;96747.00;;;;5029397;28;20201;-84
2023/06/20 12:21:30;;;;;;;10.10;9.15;;;35.90;65.90;40.40;96751.00;;;;5027631;28;20207;-86
2023/06/20 12:24:20;;;;;;;10.63;9.40;;;36.20;65.90;40.30;96753.00;;;;5027511;28;20224;-85
2023/06/20 12:27:12;;;;;;;10.70;9.60;;;36.40;66.10;40.90;96747.00;;;;5026257;28;20580;-85
2023/06/20 12:30:02;;;;;;;10.68;9.40;;;36.70;66.40;40.70;96750.00;;;;5026303;28;20208;-84
2023/06/20 12:32:51;;;;;;;10.27;9.38;;;36.90;65.40;40.90;96741.00;;;;5021380;28;20209;-84
2023/06/20 12:35:40;;;;;;;12.13;10.40;;;37.10;65.00;40.20;96754.00;;;;5029190;28;20639;-86
2023/06/20 12:38:30;;;;;;;11.90;10.48;;;37.20;65.20;40.60;96731.00;;;;5032070;28;20217;-85
2023/06/20 12:41:21;;;;;;;11.23;10.18;;;37.10;64.20;40.40;96742.00;;;;5026944;28;20749;-85
2023/06/20 12:44:10;;;;;;;10.00;9.10;;;37.20;63.40;40.30;96752.00;;;;5029491;28;20232;-85
2023/06/20 12:47:00;;;;;;;11.05;9.95;;;37.10;64.70;39.60;96756.00;;;;5029426;28;20210;-86
2023/06/20 12:49:49;;;;;;;10.68;9.57;;;36.90;62.50;40.10;96749.00;;;;5033735;28;20266;-85
2023/06/20 12:52:38;;;;;;;10.38;9.38;;;36.90;63.20;39.00;96749.00;;;;5031461;28;20208;-85
2023/06/20 12:55:27;;;;;;;10.80;9.52;;;36.80;61.40;38.00;96746.00;;;;5028320;28;20246;-85
2023/06/20 12:58:16;;;;;;;10.40;9.50;;;36.60;61.40;38.60;96747.00;;;;5031741;28;20258;-85
2023/06/20 13:01:04;;;;;;;11.02;10.07;;;36.30;65.10;39.10;96747.00;;;;5031871;28;20206;-86
2023/06/20 13:03:55;;;;;;;12.32;11.13;;;36.20;63.60;38.10;96747.00;;;;5035892;28;20233;-84
2023/06/20 13:06:43;;;;;;;14.43;11.82;;;36.10;62.90;39.60;96749.00;;;;5011437;23;20580;-76
2023/06/20 13:09:32;;;;;;;10.68;9.68;;;36.20;65.00;39.50;96749.00;;;;5009707;28;20249;-75
2023/06/20 13:12:22;;;;;;;11.35;10.35;;;36.30;63.70;40.10;96751.00;;;;5008944;28;20213;-74
2023/06/20 13:15:13;;;;;;;11.90;10.77;;;36.40;64.00;40.10;96733.00;;;;4998114;28;20203;-73
2023/06/20 13:18:04;;;;;;;11.02;9.82;;;36.60;62.90;40.90;96727.00;;;;4994193;28;20214;-74
2023/06/20 13:20:54;;;;;;;11.20;9.95;;;36.80;63.90;41.00;96741.00;;;;4992157;28;20230;-74
2023/06/20 13:23:43;;;;;;;11.27;10.27;;;37.10;62.50;38.00;96739.00;;;;4991141;28;20230;-74